Time;durP1;ratioP1;P1;durP2;ratioP2;P2;SDS_P1;SDS_P2;PMS_P1;PMS_P2;Temp;Humidity;BMP_temperature;BMP_pressure;BME280_temperature;BME280_humidity;BME280_pressure;Samples;Min_cycle;Max_cycle;Signal;HPM_P1;HPM_P2
2024/01/25 00:01:28;;;;;;;15.60;3.75;;;7.10;99.90;;;;;;4965599;28;20062;-82
2024/01/25 00:03:54;;;;;;;6.95;3.35;;;7.10;99.90;;;;;;4983971;28;20046;-81
2024/01/25 00:06:20;;;;;;;9.57;3.40;;;7.00;99.90;;;;;;4962335;28;20039;-81
2024/01/25 00:08:46;;;;;;;16.55;4.45;;;7.00;99.90;;;;;;4983106;28;20130;-81
2024/01/25 00:11:12;;;;;;;10.90;3.45;;;7.00;99.90;;;;;;4980332;28;20142;-81
2024/01/25 00:13:38;;;;;;;6.20;1.98;;;7.00;99.90;;;;;;4995366;28;20054;-84
2024/01/25 00:16:05;;;;;;;8.70;2.20;;;6.90;99.90;;;;;;4950721;28;20125;-82
2024/01/25 00:18:30;;;;;;;8.40;2.63;;;7.00;99.90;;;;;;4957442;28;20508;-84
2024/01/25 00:20:56;;;;;;;9.35;3.40;;;6.90;99.90;;;;;;4998021;28;20038;-82
2024/01/25 00:23:21;;;;;;;7.25;3.13;;;6.90;99.90;;;;;;4950647;28;20073;-83
2024/01/25 00:25:47;;;;;;;17.25;3.78;;;6.90;99.90;;;;;;4971764;28;20093;-82
2024/01/25 00:28:13;;;;;;;9.75;2.28;;;6.90;99.90;;;;;;4969723;28;20050;-80
2024/01/25 00:30:39;;;;;;;9.70;3.53;;;6.90;99.90;;;;;;4964689;28;20034;-80
2024/01/25 00:33:05;;;;;;;12.25;3.00;;;6.90;99.90;;;;;;5001433;28;20072;-82
2024/01/25 00:35:31;;;;;;;16.15;3.65;;;6.90;99.90;;;;;;5003031;28;20121;-79
2024/01/25 00:37:57;;;;;;;7.75;3.10;;;6.90;99.90;;;;;;4984577;28;20452;-82
2024/01/25 00:40:23;;;;;;;12.90;4.45;;;6.90;99.90;;;;;;4962839;28;20057;-84
2024/01/25 00:42:52;;;;;;;8.63;4.18;;;6.90;99.90;;;;;;4976329;28;20090;-84
2024/01/25 00:45:19;;;;;;;8.70;2.78;;;6.80;99.90;;;;;;4961551;28;20604;-84
2024/01/25 00:47:45;;;;;;;9.38;2.70;;;6.80;99.90;;;;;;4982097;28;20049;-83
2024/01/25 00:50:11;;;;;;;5.40;3.20;;;6.80;99.90;;;;;;4973750;28;20046;-86
2024/01/25 00:52:37;;;;;;;11.57;3.97;;;6.80;99.90;;;;;;4985053;28;20050;-86
2024/01/25 00:55:03;;;;;;;16.65;4.55;;;6.80;99.90;;;;;;4963093;28;20481;-83
2024/01/25 00:57:29;;;;;;;7.85;2.65;;;6.70;99.90;;;;;;4982838;28;20057;-85
2024/01/25 00:59:55;;;;;;;9.07;4.70;;;6.70;99.90;;;;;;4968054;28;20046;-83
2024/01/25 01:02:22;;;;;;;10.27;4.28;;;6.70;99.90;;;;;;4981973;28;20043;-86
2024/01/25 01:04:48;;;;;;;7.82;3.40;;;6.80;99.90;;;;;;4947406;28;20097;-85
2024/01/25 01:07:15;;;;;;;10.50;3.25;;;6.70;99.90;;;;;;4963787;28;20500;-86
2024/01/25 01:09:40;;;;;;;21.70;4.63;;;6.70;99.90;;;;;;4959107;28;20055;-85
2024/01/25 01:12:07;;;;;;;16.58;3.05;;;6.70;99.90;;;;;;4996741;28;20205;-86
2024/01/25 01:14:33;;;;;;;9.15;2.90;;;6.60;99.90;;;;;;4979858;28;20057;-84
2024/01/25 01:16:58;;;;;;;5.57;3.08;;;6.70;99.90;;;;;;4954921;28;20473;-84
2024/01/25 01:19:24;;;;;;;17.75;3.95;;;6.70;99.90;;;;;;4989425;28;20127;-83
2024/01/25 01:21:49;;;;;;;8.93;3.17;;;6.70;99.90;;;;;;4987528;28;20057;-81
2024/01/25 01:24:15;;;;;;;5.78;3.63;;;6.70;99.90;;;;;;4964896;28;20047;-85
2024/01/25 01:26:44;;;;;;;16.83;5.60;;;6.60;99.90;;;;;;4978038;28;20050;-85
2024/01/25 01:29:09;;;;;;;23.35;3.63;;;6.70;99.90;;;;;;4965162;28;20695;-82
2024/01/25 01:31:35;;;;;;;11.35;3.63;;;6.60;99.90;;;;;;4981857;28;20043;-82
2024/01/25 01:34:01;;;;;;;16.60;3.85;;;6.60;99.90;;;;;;4982148;28;20042;-81
2024/01/25 01:36:26;;;;;;;8.35;2.60;;;6.60;99.90;;;;;;4982613;28;20537;-81
2024/01/25 01:38:52;;;;;;;11.75;4.93;;;6.60;99.90;;;;;;4978721;28;20041;-80
2024/01/25 01:41:18;;;;;;;9.63;3.40;;;6.60;99.90;;;;;;4981639;28;20038;-82
2024/01/25 01:43:43;;;;;;;13.77;3.88;;;6.60;99.90;;;;;;4984620;28;20085;-85
2024/01/25 01:46:20;;;;;;;9.80;3.55;;;6.60;99.90;;;;;;4973673;28;20482;-84
2024/01/25 01:48:46;;;;;;;8.43;4.18;;;6.60;99.90;;;;;;4946895;28;20138;-85
2024/01/25 01:51:11;;;;;;;6.43;3.53;;;6.50;99.90;;;;;;4988691;28;20129;-85
2024/01/25 01:53:37;;;;;;;8.65;2.95;;;6.50;99.90;;;;;;4980154;28;20050;-86
2024/01/25 01:56:04;;;;;;;17.10;4.32;;;6.50;99.90;;;;;;4950430;28;20042;-86
2024/01/25 01:58:31;;;;;;;6.70;1.90;;;6.50;99.90;;;;;;4989685;28;20046;-85
2024/01/25 02:00:57;;;;;;;13.10;6.22;;;6.50;99.90;;;;;;4982136;28;20046;-86
2024/01/25 02:03:23;;;;;;;6.13;2.75;;;6.50;99.90;;;;;;5067016;23;20058;-83
2024/01/25 02:05:49;;;;;;;11.05;3.28;;;6.40;99.90;;;;;;4966009;28;20054;-86
2024/01/25 02:08:15;;;;;;;9.75;3.30;;;6.40;99.90;;;;;;4990524;28;20408;-85
2024/01/25 02:10:40;;;;;;;11.15;2.83;;;6.40;99.90;;;;;;4995262;28;20076;-86
2024/01/25 02:13:06;;;;;;;9.77;3.72;;;6.40;99.90;;;;;;4985816;28;20053;-86
2024/01/25 02:15:31;;;;;;;5.30;3.03;;;6.40;99.90;;;;;;4967647;28;20546;-85
2024/01/25 02:17:57;;;;;;;5.07;2.60;;;6.40;99.90;;;;;;4983418;28;20408;-86
2024/01/25 02:20:23;;;;;;;5.45;2.25;;;6.30;99.90;;;;;;4988001;28;20161;-86
2024/01/25 02:22:48;;;;;;;9.95;4.70;;;6.30;99.90;;;;;;4960629;28;20055;-85
2024/01/25 02:25:14;;;;;;;5.03;2.22;;;6.30;99.90;;;;;;4964817;28;20082;-86
2024/01/25 02:27:40;;;;;;;10.65;3.63;;;6.30;99.90;;;;;;4967007;28;20055;-86
2024/01/25 02:30:06;;;;;;;8.40;4.00;;;6.30;99.90;;;;;;4974902;28;20050;-86
2024/01/25 02:32:32;;;;;;;14.50;3.28;;;6.20;99.90;;;;;;4985455;28;20105;-86
2024/01/25 02:34:58;;;;;;;9.95;3.13;;;6.30;99.90;;;;;;4969669;28;20460;-86
2024/01/25 02:37:23;;;;;;;9.73;3.65;;;6.20;99.90;;;;;;4983009;28;20469;-87
2024/01/25 02:39:49;;;;;;;9.68;2.80;;;6.20;99.90;;;;;;4996213;28;20101;-86
2024/01/25 02:42:16;;;;;;;10.52;3.92;;;6.30;99.90;;;;;;4985868;28;20042;-86
2024/01/25 02:44:43;;;;;;;14.77;4.47;;;6.20;99.90;;;;;;4961741;28;20453;-86
2024/01/25 02:47:08;;;;;;;6.45;2.47;;;6.20;99.90;;;;;;4942965;28;20046;-86
2024/01/25 02:49:34;;;;;;;5.03;2.95;;;6.20;99.90;;;;;;4985418;28;20472;-83
2024/01/25 02:51:59;;;;;;;9.07;3.28;;;6.20;99.90;;;;;;4950313;28;20092;-86
2024/01/25 02:54:25;;;;;;;25.40;4.00;;;6.20;99.90;;;;;;4984584;28;20484;-85
2024/01/25 02:56:50;;;;;;;12.85;3.72;;;6.20;99.90;;;;;;4981964;28;20053;-82
2024/01/25 02:59:16;;;;;;;7.35;3.17;;;6.20;99.90;;;;;;4966245;28;20039;-86
2024/01/25 03:01:44;;;;;;;7.93;3.03;;;6.20;99.90;;;;;;4998492;28;20511;-86
2024/01/25 03:04:10;;;;;;;11.93;3.10;;;6.10;99.90;;;;;;4984254;28;20058;-86
2024/01/25 03:06:36;;;;;;;14.57;4.00;;;6.10;99.90;;;;;;4953751;28;20129;-82
2024/01/25 03:09:04;;;;;;;8.40;2.90;;;6.10;99.90;;;;;;4966496;28;20078;-86
2024/01/25 03:11:30;;;;;;;15.70;4.18;;;6.10;99.90;;;;;;4984974;28;20038;-85
2024/01/25 03:13:56;;;;;;;13.48;3.20;;;6.10;99.90;;;;;;4967033;28;20141;-81
2024/01/25 03:16:22;;;;;;;6.72;2.72;;;6.00;99.90;;;;;;4977024;28;20121;-82
2024/01/25 03:18:48;;;;;;;15.68;3.28;;;6.00;99.90;;;;;;4982826;28;20046;-81
2024/01/25 03:21:14;;;;;;;10.38;2.38;;;6.00;99.90;;;;;;4997454;28;20039;-81
2024/01/25 03:23:39;;;;;;;4.40;2.85;;;6.00;99.90;;;;;;4984221;28;20400;-83
2024/01/25 03:26:05;;;;;;;8.73;2.50;;;6.00;99.90;;;;;;4995343;28;20129;-83
2024/01/25 03:28:31;;;;;;;8.23;4.15;;;6.00;99.90;;;;;;4977799;28;20500;-82
2024/01/25 03:30:57;;;;;;;20.02;5.05;;;5.90;99.90;;;;;;4950694;28;20100;-83
2024/01/25 03:33:22;;;;;;;6.78;2.17;;;5.90;99.90;;;;;;4982279;28;20682;-82
2024/01/25 03:35:48;;;;;;;3.65;2.67;;;5.90;99.90;;;;;;4989192;28;20412;-82
2024/01/25 03:38:13;;;;;;;14.25;3.88;;;5.90;99.90;;;;;;4982549;28;20146;-82
2024/01/25 03:40:39;;;;;;;5.90;3.20;;;5.90;99.90;;;;;;4947971;28;20544;-85
2024/01/25 03:43:05;;;;;;;21.67;5.20;;;5.80;99.90;;;;;;4979564;28;20034;-83
2024/01/25 03:45:32;;;;;;;4.68;2.78;;;5.80;99.90;;;;;;4953446;28;20133;-80
2024/01/25 03:47:58;;;;;;;14.27;4.00;;;5.80;99.90;;;;;;4975391;28;20425;-82
2024/01/25 03:50:24;;;;;;;8.45;2.40;;;5.80;99.90;;;;;;4948963;28;20050;-83
2024/01/25 03:52:49;;;;;;;13.88;3.50;;;5.80;99.90;;;;;;4967751;28;20052;-81
2024/01/25 03:55:15;;;;;;;13.13;3.22;;;5.80;99.90;;;;;;4978338;28;20065;-83
2024/01/25 03:57:41;;;;;;;7.35;2.75;;;5.80;99.90;;;;;;4983246;28;20077;-83
2024/01/25 04:00:08;;;;;;;11.20;3.45;;;5.70;99.90;;;;;;4966016;28;20042;-83
2024/01/25 04:02:34;;;;;;;10.60;2.78;;;5.70;99.90;;;;;;4981181;28;20069;-82
2024/01/25 04:05:00;;;;;;;9.20;3.28;;;5.70;99.90;;;;;;4973557;28;20633;-80
2024/01/25 04:07:25;;;;;;;10.70;2.85;;;5.70;99.90;;;;;;4997135;28;20046;-82
2024/01/25 04:09:51;;;;;;;5.32;3.35;;;5.70;99.90;;;;;;4982827;28;20042;-82
2024/01/25 04:12:16;;;;;;;9.55;3.20;;;5.70;99.90;;;;;;4984231;28;20042;-81
2024/01/25 04:14:42;;;;;;;7.88;2.88;;;5.70;99.90;;;;;;4983274;28;20042;-83
2024/01/25 04:17:08;;;;;;;9.52;3.38;;;5.70;99.90;;;;;;4998844;28;20042;-84
2024/01/25 04:19:35;;;;;;;10.32;4.20;;;5.70;99.90;;;;;;4978068;28;20047;-84
2024/01/25 04:22:00;;;;;;;9.65;3.42;;;5.70;99.90;;;;;;4975021;28;20499;-81
2024/01/25 04:24:26;;;;;;;13.35;3.55;;;5.70;99.90;;;;;;4948659;28;20046;-83
2024/01/25 04:26:51;;;;;;;11.40;4.38;;;5.70;99.90;;;;;;4957462;28;20043;-84
2024/01/25 04:29:17;;;;;;;14.25;4.70;;;5.70;99.90;;;;;;4982908;28;20041;-82
2024/01/25 04:31:44;;;;;;;9.75;3.22;;;5.70;99.90;;;;;;4981847;28;20042;-81
2024/01/25 04:34:10;;;;;;;7.53;3.53;;;5.70;99.90;;;;;;4997249;28;20058;-81
2024/01/25 04:36:36;;;;;;;7.40;3.25;;;5.60;99.90;;;;;;4976473;28;20374;-82
2024/01/25 04:39:01;;;;;;;11.93;3.33;;;5.60;99.90;;;;;;4991436;28;20053;-83
2024/01/25 04:41:27;;;;;;;10.82;3.90;;;5.60;99.90;;;;;;4966256;28;20038;-83
2024/01/25 04:43:53;;;;;;;5.55;3.10;;;5.60;99.90;;;;;;4968046;28;20058;-82
2024/01/25 04:46:18;;;;;;;7.40;3.65;;;5.60;99.90;;;;;;4975590;28;20041;-83
2024/01/25 04:48:45;;;;;;;16.85;4.40;;;5.60;99.90;;;;;;4993454;28;20077;-82
2024/01/25 04:51:20;;;;;;;11.68;3.20;;;5.60;99.90;;;;;;4984458;28;20494;-81
2024/01/25 04:53:46;;;;;;;11.43;3.95;;;5.50;99.90;;;;;;4985352;28;20042;-84
2024/01/25 04:56:11;;;;;;;4.82;2.25;;;5.60;99.90;;;;;;4978248;28;20177;-86
2024/01/25 04:58:37;;;;;;;8.70;3.67;;;5.50;99.90;;;;;;4976462;28;20133;-86
2024/01/25 05:01:03;;;;;;;4.93;2.95;;;5.50;99.90;;;;;;4983000;28;20057;-86
2024/01/25 05:03:28;;;;;;;9.70;3.40;;;5.50;99.90;;;;;;4983039;28;20046;-85
2024/01/25 05:05:54;;;;;;;16.58;5.43;;;5.50;99.90;;;;;;4970621;28;20553;-86
2024/01/25 05:08:19;;;;;;;9.07;3.92;;;5.50;99.90;;;;;;4946304;28;20394;-81
2024/01/25 05:10:45;;;;;;;12.07;3.17;;;5.50;99.90;;;;;;4979007;28;20436;-85
2024/01/25 05:13:12;;;;;;;13.10;5.90;;;5.50;99.90;;;;;;4962678;28;20038;-86
2024/01/25 05:15:38;;;;;;;16.45;3.33;;;5.50;99.90;;;;;;4976851;28;20428;-86
2024/01/25 05:18:04;;;;;;;24.20;4.63;;;5.50;99.90;;;;;;5002213;28;20048;-86
2024/01/25 05:20:34;;;;;;;13.25;4.15;;;5.40;99.90;;;;;;4981485;28;20045;-86
2024/01/25 05:23:01;;;;;;;11.98;4.63;;;5.50;99.90;;;;;;4980601;28;20050;-79
2024/01/25 05:25:27;;;;;;;8.85;2.63;;;5.50;99.90;;;;;;4974326;28;20130;-83
2024/01/25 05:27:53;;;;;;;8.48;3.63;;;5.40;99.90;;;;;;4963463;28;20074;-84
2024/01/25 05:30:19;;;;;;;8.15;2.17;;;5.50;99.90;;;;;;4952094;28;20219;-83
2024/01/25 05:32:45;;;;;;;9.18;3.30;;;5.40;99.90;;;;;;4963306;28;20043;-82
2024/01/25 05:35:11;;;;;;;10.77;3.22;;;5.40;99.90;;;;;;4967703;28;20054;-83
2024/01/25 05:37:37;;;;;;;4.63;2.75;;;5.40;99.90;;;;;;4977671;28;20375;-79
2024/01/25 05:40:03;;;;;;;7.43;2.47;;;5.40;99.90;;;;;;4969781;28;20073;-81
2024/01/25 05:42:28;;;;;;;7.03;3.28;;;5.40;99.90;;;;;;4971641;28;20080;-82
2024/01/25 05:44:54;;;;;;;6.90;3.53;;;5.50;99.90;;;;;;4984842;28;20066;-80
2024/01/25 05:47:19;;;;;;;5.50;2.40;;;5.40;99.90;;;;;;4979201;28;20050;-81
2024/01/25 05:49:45;;;;;;;14.32;3.13;;;5.40;99.90;;;;;;4948513;28;20081;-83
2024/01/25 05:52:10;;;;;;;14.50;4.05;;;5.50;99.90;;;;;;4952046;28;20545;-84
2024/01/25 05:54:36;;;;;;;17.08;3.78;;;5.40;99.90;;;;;;4981002;28;20684;-85
2024/01/25 05:57:02;;;;;;;15.60;4.40;;;5.40;99.90;;;;;;4971207;28;20068;-85
2024/01/25 05:59:27;;;;;;;14.45;5.13;;;5.40;99.90;;;;;;4994179;28;20077;-87
2024/01/25 06:01:53;;;;;;;9.63;2.40;;;5.40;99.90;;;;;;4966739;28;20666;-83
2024/01/25 06:04:19;;;;;;;10.23;3.22;;;5.40;99.90;;;;;;4979894;28;20066;-76
2024/01/25 06:06:44;;;;;;;4.70;2.50;;;5.40;99.90;;;;;;4970463;28;20077;-74
2024/01/25 06:09:10;;;;;;;11.32;4.85;;;5.30;99.90;;;;;;4987570;28;20053;-76
2024/01/25 06:11:36;;;;;;;14.80;2.47;;;5.30;99.90;;;;;;4970717;28;20038;-76
2024/01/25 06:14:02;;;;;;;9.45;3.75;;;5.30;99.90;;;;;;4970016;28;20137;-76
2024/01/25 06:16:27;;;;;;;8.68;3.03;;;5.30;99.90;;;;;;4986651;28;20451;-77
2024/01/25 06:18:53;;;;;;;10.73;3.72;;;5.20;99.90;;;;;;4967302;28;20492;-77
2024/01/25 06:21:18;;;;;;;8.68;3.50;;;5.20;99.90;;;;;;4983306;28;20122;-75
2024/01/25 06:23:44;;;;;;;11.77;3.70;;;5.10;99.90;;;;;;4965545;28;20047;-75
2024/01/25 06:26:09;;;;;;;9.30;3.42;;;5.20;99.90;;;;;;4989946;28;20047;-76
2024/01/25 06:28:35;;;;;;;6.75;3.13;;;5.10;99.90;;;;;;4987015;28;20050;-75
2024/01/25 06:31:03;;;;;;;9.38;4.00;;;5.10;99.90;;;;;;4985939;28;20053;-77
2024/01/25 06:33:29;;;;;;;5.78;3.72;;;5.00;99.90;;;;;;4989509;28;20073;-77
2024/01/25 06:35:56;;;;;;;5.38;3.45;;;4.90;99.90;;;;;;4990087;28;20500;-77
2024/01/25 06:38:21;;;;;;;13.50;4.07;;;4.90;99.90;;;;;;4986213;28;20030;-76
2024/01/25 06:40:47;;;;;;;8.93;3.08;;;4.80;99.90;;;;;;4986977;28;20448;-77
2024/01/25 06:43:12;;;;;;;7.13;2.72;;;4.80;99.90;;;;;;4986766;28;20590;-77
2024/01/25 06:45:40;;;;;;;9.80;3.78;;;4.70;99.90;;;;;;4984479;28;20408;-76
2024/01/25 06:48:07;;;;;;;6.80;2.80;;;4.70;99.90;;;;;;4966220;28;20116;-77
2024/01/25 06:50:33;;;;;;;10.18;4.38;;;4.70;99.90;;;;;;4985778;28;20054;-76
2024/01/25 06:52:59;;;;;;;10.90;3.83;;;4.60;99.90;;;;;;4965594;28;20053;-77
2024/01/25 06:55:24;;;;;;;18.38;4.13;;;4.60;99.90;;;;;;4974925;28;20729;-76
2024/01/25 06:57:50;;;;;;;14.77;4.63;;;4.60;99.90;;;;;;4980719;28;20058;-74
2024/01/25 07:00:15;;;;;;;11.93;4.20;;;4.60;99.90;;;;;;4965204;28;20050;-76
2024/01/25 07:02:42;;;;;;;19.42;4.65;;;4.60;99.90;;;;;;4966611;28;20057;-74
2024/01/25 07:05:08;;;;;;;7.10;4.70;;;4.60;99.90;;;;;;4962240;28;20134;-74
2024/01/25 07:07:34;;;;;;;9.07;3.47;;;4.60;99.90;;;;;;4966056;28;20050;-75
2024/01/25 07:09:59;;;;;;;10.38;2.38;;;4.60;99.90;;;;;;4948153;28;20069;-76
2024/01/25 07:12:25;;;;;;;13.32;4.05;;;4.60;99.90;;;;;;4963975;28;20043;-76
2024/01/25 07:14:51;;;;;;;4.57;3.28;;;4.50;99.90;;;;;;4980558;28;20096;-78
2024/01/25 07:17:16;;;;;;;6.80;3.30;;;4.50;99.90;;;;;;4995665;28;20038;-75
2024/01/25 07:19:42;;;;;;;9.05;3.72;;;4.50;99.90;;;;;;4981884;28;20078;-76
2024/01/25 07:22:07;;;;;;;11.98;2.67;;;4.50;99.90;;;;;;4966808;28;20598;-76
2024/01/25 07:24:33;;;;;;;4.50;2.55;;;4.40;99.90;;;;;;4952197;28;20069;-77
2024/01/25 07:26:59;;;;;;;7.72;3.00;;;4.40;99.90;;;;;;4965248;28;20073;-76
2024/01/25 07:29:25;;;;;;;10.23;3.13;;;4.40;99.90;;;;;;4982079;28;20092;-76
2024/01/25 07:31:50;;;;;;;12.05;4.53;;;4.50;99.90;;;;;;4976452;28;20456;-76
2024/01/25 07:34:16;;;;;;;7.68;3.22;;;4.40;99.90;;;;;;4955219;28;20046;-77
2024/01/25 07:36:43;;;;;;;8.27;2.70;;;4.40;99.90;;;;;;4981981;28;20053;-76
2024/01/25 07:39:08;;;;;;;5.65;3.30;;;4.40;99.90;;;;;;4983372;28;20050;-76
2024/01/25 07:41:34;;;;;;;6.05;2.75;;;4.40;99.90;;;;;;4965769;28;20053;-76
2024/01/25 07:43:59;;;;;;;8.60;2.97;;;4.40;99.90;;;;;;4983645;28;20610;-76
2024/01/25 07:46:25;;;;;;;5.00;2.65;;;4.40;99.90;;;;;;4966848;28;20632;-77
2024/01/25 07:48:50;;;;;;;7.85;3.88;;;4.40;99.90;;;;;;4966266;28;20133;-76
2024/01/25 07:51:16;;;;;;;6.28;3.05;;;4.40;99.90;;;;;;4982445;28;20042;-76
2024/01/25 07:53:42;;;;;;;4.70;2.85;;;4.50;99.90;;;;;;4965754;28;20128;-76
2024/01/25 07:56:08;;;;;;;7.40;3.70;;;4.50;99.90;;;;;;4982175;28;20547;-75
2024/01/25 07:58:35;;;;;;;11.20;4.70;;;4.50;99.90;;;;;;4983819;28;20084;-76
2024/01/25 08:01:06;;;;;;;12.88;4.05;;;4.50;99.90;;;;;;4981878;28;20533;-76
2024/01/25 08:03:31;;;;;;;9.02;3.88;;;4.50;99.90;;;;;;4965395;28;20054;-76
2024/01/25 08:05:58;;;;;;;9.13;3.72;;;4.50;99.90;;;;;;4981571;28;20054;-76
2024/01/25 08:08:23;;;;;;;5.85;2.75;;;4.50;99.90;;;;;;4966547;28;20262;-76
2024/01/25 08:10:49;;;;;;;8.93;3.83;;;4.50;99.90;;;;;;4982954;28;20050;-76
2024/01/25 08:13:15;;;;;;;6.03;2.35;;;4.50;99.90;;;;;;4980386;28;20769;-76
2024/01/25 08:15:40;;;;;;;8.40;3.17;;;4.40;99.90;;;;;;4983569;28;20071;-76
2024/01/25 08:18:06;;;;;;;12.77;6.55;;;4.40;99.90;;;;;;4982240;28;20042;-76
2024/01/25 08:20:32;;;;;;;29.17;5.68;;;4.40;99.90;;;;;;4983669;28;20101;-76
2024/01/25 08:22:58;;;;;;;6.53;2.92;;;4.40;99.90;;;;;;4964423;28;20462;-77
2024/01/25 08:25:24;;;;;;;16.77;3.97;;;4.50;99.90;;;;;;4982244;28;20069;-76
2024/01/25 08:27:50;;;;;;;5.63;2.70;;;4.50;99.90;;;;;;4982323;28;20050;-76
2024/01/25 08:30:15;;;;;;;5.93;2.83;;;4.50;99.90;;;;;;4999102;28;20042;-77
2024/01/25 08:32:41;;;;;;;8.05;2.60;;;4.50;99.90;;;;;;4982219;28;20559;-76
2024/01/25 08:35:07;;;;;;;7.97;2.72;;;4.60;99.90;;;;;;4982793;28;20054;-76
2024/01/25 08:37:33;;;;;;;30.13;4.97;;;4.60;99.90;;;;;;4982466;28;20402;-77
2024/01/25 08:39:59;;;;;;;9.18;4.32;;;4.60;99.90;;;;;;4997790;28;20054;-77
2024/01/25 08:42:24;;;;;;;10.85;2.53;;;4.60;99.90;;;;;;4982615;28;20042;-76
2024/01/25 08:44:50;;;;;;;10.60;5.05;;;4.60;99.90;;;;;;4981081;28;20069;-76
2024/01/25 08:47:17;;;;;;;13.55;4.18;;;4.60;99.90;;;;;;4983196;28;20043;-76
2024/01/25 08:49:42;;;;;;;6.10;3.55;;;4.60;99.90;;;;;;4982640;28;20049;-76
2024/01/25 08:52:09;;;;;;;9.88;3.40;;;4.70;99.90;;;;;;4981672;28;20054;-76
2024/01/25 08:54:36;;;;;;;8.68;4.43;;;4.70;99.90;;;;;;4980407;28;20049;-77
2024/01/25 08:57:03;;;;;;;10.77;3.10;;;4.70;99.90;;;;;;4982035;28;20046;-77
2024/01/25 08:59:30;;;;;;;11.88;4.28;;;4.80;99.90;;;;;;4981578;28;20050;-77
2024/01/25 09:01:56;;;;;;;15.80;4.47;;;4.80;99.90;;;;;;4955195;28;20050;-76
2024/01/25 09:04:22;;;;;;;11.35;4.10;;;4.80;99.90;;;;;;4980868;28;20058;-76
2024/01/25 09:06:47;;;;;;;6.65;3.03;;;4.80;99.90;;;;;;4980513;28;20050;-77
2024/01/25 09:09:13;;;;;;;8.57;3.05;;;4.90;99.90;;;;;;4981005;28;20050;-77
2024/01/25 09:11:38;;;;;;;9.32;3.88;;;4.90;99.90;;;;;;4981974;28;20045;-77
2024/01/25 09:14:04;;;;;;;12.65;4.05;;;4.90;99.90;;;;;;4979491;28;20046;-76
2024/01/25 09:16:30;;;;;;;17.45;5.18;;;4.90;99.90;;;;;;4948483;28;20055;-76
2024/01/25 09:18:56;;;;;;;10.88;4.22;;;4.90;99.90;;;;;;4982237;28;20053;-75
2024/01/25 09:21:21;;;;;;;8.00;2.95;;;4.90;99.90;;;;;;4975535;28;20414;-76
2024/01/25 09:23:47;;;;;;;9.15;3.83;;;4.90;99.90;;;;;;4986130;28;20181;-76
2024/01/25 09:26:12;;;;;;;14.85;5.32;;;4.90;99.90;;;;;;4980848;28;20062;-76
2024/01/25 09:28:38;;;;;;;15.70;3.63;;;4.90;99.90;;;;;;4981156;28;20088;-75
2024/01/25 09:31:04;;;;;;;21.00;4.40;;;5.00;99.90;;;;;;4963780;28;20046;-76
2024/01/25 09:33:29;;;;;;;7.10;3.25;;;5.00;99.90;;;;;;4964268;28;20096;-76
2024/01/25 09:35:55;;;;;;;13.27;3.53;;;5.00;99.90;;;;;;4980944;28;20038;-76
2024/01/25 09:38:21;;;;;;;17.27;5.63;;;5.00;99.90;;;;;;4981125;28;20452;-77
2024/01/25 09:40:48;;;;;;;6.15;4.05;;;5.00;99.90;;;;;;4982198;28;20039;-76
2024/01/25 09:43:14;;;;;;;9.18;3.47;;;5.00;99.90;;;;;;4981262;28;20038;-76
2024/01/25 09:45:41;;;;;;;4.93;3.50;;;5.00;99.90;;;;;;4965052;28;20523;-76
2024/01/25 09:48:07;;;;;;;13.32;4.38;;;5.10;99.90;;;;;;4981101;28;20034;-76
2024/01/25 09:50:33;;;;;;;6.85;3.17;;;5.10;99.90;;;;;;4979406;28;20054;-77
2024/01/25 09:53:00;;;;;;;6.63;2.92;;;5.10;99.90;;;;;;4980341;28;20046;-76
2024/01/25 09:55:26;;;;;;;9.52;3.67;;;5.10;99.90;;;;;;4980645;28;20053;-76
2024/01/25 09:57:59;;;;;;;9.73;4.32;;;5.10;99.90;;;;;;4981510;28;20042;-76
2024/01/25 10:00:24;;;;;;;8.77;2.72;;;5.10;99.90;;;;;;4964450;28;20133;-75
2024/01/25 10:02:50;;;;;;;12.18;4.68;;;5.20;99.90;;;;;;4970943;28;20139;-76
2024/01/25 10:05:17;;;;;;;6.60;3.22;;;5.20;99.90;;;;;;4946418;28;20057;-76
2024/01/25 10:07:47;;;;;;;6.53;2.63;;;5.30;99.90;;;;;;4944071;28;20122;-76
2024/01/25 10:10:13;;;;;;;5.30;3.75;;;5.30;99.90;;;;;;4945519;28;20063;-76
2024/01/25 10:12:43;;;;;;;8.10;3.65;;;5.30;99.90;;;;;;4976100;28;20045;-76
2024/01/25 10:15:09;;;;;;;11.60;3.30;;;5.40;99.90;;;;;;4979358;28;20535;-76
2024/01/25 10:17:35;;;;;;;7.25;3.05;;;5.40;99.90;;;;;;4981950;28;20628;-76
2024/01/25 10:20:00;;;;;;;7.00;3.33;;;5.50;99.90;;;;;;4981833;28;20038;-76
2024/01/25 10:22:27;;;;;;;10.52;3.15;;;5.50;99.90;;;;;;4980454;28;20193;-76
2024/01/25 10:24:55;;;;;;;10.27;4.65;;;5.60;99.90;;;;;;4982205;28;20065;-76
2024/01/25 10:27:22;;;;;;;11.98;2.47;;;5.70;99.90;;;;;;4984580;28;20045;-76
2024/01/25 10:29:49;;;;;;;8.73;3.35;;;5.70;99.90;;;;;;4986017;28;20046;-76
2024/01/25 10:32:15;;;;;;;9.93;3.58;;;5.80;99.90;;;;;;4982195;28;20196;-76
2024/01/25 10:34:42;;;;;;;18.20;3.53;;;5.80;99.90;;;;;;4983005;28;20137;-76
2024/01/25 10:37:08;;;;;;;8.63;3.28;;;5.80;99.90;;;;;;4984980;28;20050;-75
2024/01/25 10:39:34;;;;;;;7.40;3.38;;;5.90;99.90;;;;;;4975021;28;20089;-76
2024/01/25 10:42:00;;;;;;;8.55;3.90;;;5.90;99.90;;;;;;4984467;28;20514;-76
2024/01/25 10:44:26;;;;;;;15.13;3.13;;;6.00;99.90;;;;;;4950093;28;20173;-76
2024/01/25 10:46:54;;;;;;;13.13;4.00;;;6.00;99.90;;;;;;4963640;28;20122;-76
2024/01/25 10:49:20;;;;;;;20.05;6.03;;;6.10;99.90;;;;;;4949325;28;20054;-76
2024/01/25 10:51:46;;;;;;;11.55;2.90;;;6.20;99.90;;;;;;4966168;28;20043;-76
2024/01/25 10:54:14;;;;;;;9.57;3.92;;;6.30;99.90;;;;;;4966306;28;20046;-76
2024/01/25 10:56:42;;;;;;;6.53;3.58;;;6.30;99.90;;;;;;4954670;28;20050;-76
2024/01/25 10:59:08;;;;;;;12.02;4.07;;;6.40;99.90;;;;;;4958369;28;20086;-76
2024/01/25 11:01:35;;;;;;;15.15;3.95;;;6.50;99.90;;;;;;4974497;28;20049;-76
2024/01/25 11:04:00;;;;;;;6.95;3.97;;;6.60;99.90;;;;;;4963061;28;20047;-76
2024/01/25 11:06:27;;;;;;;13.25;3.15;;;6.60;99.90;;;;;;4964958;28;20050;-76
2024/01/25 11:09:07;;;;;;;9.73;3.13;;;6.70;99.90;;;;;;4963822;28;20046;-76
2024/01/25 11:11:35;;;;;;;16.30;4.57;;;6.80;99.90;;;;;;4965975;28;20050;-76
2024/01/25 11:14:01;;;;;;;10.73;3.83;;;6.80;99.90;;;;;;4963728;28;20405;-76
2024/01/25 11:16:29;;;;;;;10.95;3.92;;;6.80;99.90;;;;;;4959957;28;20043;-73
2024/01/25 11:18:58;;;;;;;11.68;4.22;;;6.80;99.90;;;;;;4963259;28;20481;-74
2024/01/25 11:21:46;;;;;;;13.93;3.42;;;6.80;99.90;;;;;;4991295;28;20047;-75
2024/01/25 11:24:22;;;;;;;15.07;3.55;;;6.80;99.90;;;;;;4947338;28;20113;-76
2024/01/25 11:26:49;;;;;;;10.10;2.88;;;6.80;99.90;;;;;;4964243;28;20054;-74
2024/01/25 11:29:22;;;;;;;16.02;4.18;;;6.80;99.90;;;;;;4963388;28;20035;-74
2024/01/25 11:31:49;;;;;;;10.57;4.40;;;6.80;99.90;;;;;;4985888;28;20085;-74
2024/01/25 11:34:15;;;;;;;5.55;2.72;;;6.80;99.90;;;;;;4947603;28;20548;-75
2024/01/25 11:36:42;;;;;;;9.73;2.95;;;6.80;99.90;;;;;;4944600;28;20517;-74
2024/01/25 11:39:12;;;;;;;16.58;4.15;;;6.80;99.90;;;;;;4956673;28;20121;-75
2024/01/25 11:41:44;;;;;;;15.23;3.40;;;6.80;99.90;;;;;;4960572;28;20055;-75
2024/01/25 11:44:11;;;;;;;10.85;3.85;;;6.80;99.90;;;;;;4954407;28;20375;-75
2024/01/25 11:46:36;;;;;;;4.80;2.83;;;6.80;99.90;;;;;;4964989;28;20037;-75
2024/01/25 11:49:02;;;;;;;10.60;3.05;;;6.80;99.90;;;;;;4962550;28;20062;-75
2024/01/25 11:51:31;;;;;;;8.57;3.33;;;6.80;99.90;;;;;;4995793;28;20486;-75
2024/01/25 11:53:56;;;;;;;14.05;3.85;;;6.80;99.90;;;;;;4980382;28;20406;-75
2024/01/25 11:56:29;;;;;;;15.07;3.75;;;6.80;99.90;;;;;;4950878;28;20039;-75
2024/01/25 11:58:56;;;;;;;6.00;2.67;;;6.80;99.90;;;;;;4962953;28;20520;-75
2024/01/25 12:01:23;;;;;;;19.92;5.70;;;6.90;99.90;;;;;;4963481;28;20062;-75
2024/01/25 12:03:49;;;;;;;8.98;3.55;;;6.90;99.90;;;;;;4971875;28;20054;-75
2024/01/25 12:06:15;;;;;;;7.85;3.58;;;6.90;99.90;;;;;;4979349;28;20608;-74
2024/01/25 12:08:40;;;;;;;28.35;5.40;;;6.90;99.90;;;;;;4958260;28;20121;-75
2024/01/25 12:11:10;;;;;;;5.53;3.42;;;6.90;99.90;;;;;;4960753;28;20433;-75
2024/01/25 12:13:40;;;;;;;4.97;2.58;;;7.00;99.90;;;;;;4949282;28;20087;-75
2024/01/25 12:16:06;;;;;;;8.98;3.83;;;7.00;99.90;;;;;;4983492;28;20046;-75
2024/01/25 12:18:32;;;;;;;11.20;4.80;;;7.00;99.90;;;;;;4966671;28;20038;-75
2024/01/25 12:20:59;;;;;;;14.73;4.10;;;7.00;99.90;;;;;;4961116;28;20100;-76
2024/01/25 12:23:34;;;;;;;7.25;3.30;;;7.10;99.90;;;;;;4981685;28;20495;-76
2024/01/25 12:26:10;;;;;;;7.15;2.72;;;7.10;99.90;;;;;;4959887;28;20065;-76
2024/01/25 12:28:37;;;;;;;9.50;3.50;;;7.10;99.90;;;;;;4964797;28;20042;-76
2024/01/25 12:31:04;;;;;;;4.70;2.38;;;7.10;99.90;;;;;;4965739;28;20050;-75
2024/01/25 12:33:30;;;;;;;13.93;4.43;;;7.10;99.90;;;;;;4991751;28;20453;-74
2024/01/25 12:35:56;;;;;;;10.57;3.50;;;7.10;99.90;;;;;;4959121;28;20450;-74
2024/01/25 12:38:22;;;;;;;12.05;3.47;;;7.20;99.90;;;;;;4964988;28;20129;-74
2024/01/25 12:40:49;;;;;;;9.82;3.03;;;7.10;99.90;;;;;;4981848;28;20049;-74
2024/01/25 12:43:15;;;;;;;16.50;2.83;;;7.20;99.90;;;;;;4978595;28;20065;-75
2024/01/25 12:45:41;;;;;;;12.45;3.72;;;7.10;99.90;;;;;;4978727;28;20089;-75
2024/01/25 12:48:07;;;;;;;7.20;2.75;;;7.10;99.90;;;;;;4964736;28;20077;-75